sensor_id;sensor_type;location;lat;lon;timestamp;temperature;humidity
42141;DHT22;27809;51.864;5.646;2022-10-20T00:02:22;8.90;99.90
42141;DHT22;27809;51.864;5.646;2022-10-20T00:04:48;9.00;99.90
42141;DHT22;27809;51.864;5.646;2022-10-20T00:07:13;8.90;99.90
42141;DHT22;27809;51.864;5.646;2022-10-20T00:09:39;8.90;99.90
42141;DHT22;27809;51.864;5.646;2022-10-20T00:12:05;8.90;99.90
42141;DHT22;27809;51.864;5.646;2022-10-20T00:14:30;8.80;99.90
42141;DHT22;27809;51.864;5.646;2022-10-20T00:16:56;8.90;99.90
42141;DHT22;27809;51.864;5.646;2022-10-20T00:19:22;8.80;99.90
42141;DHT22;27809;51.864;5.646;2022-10-20T00:21:48;8.80;99.90
42141;DHT22;27809;51.864;5.646;2022-10-20T00:24:13;8.80;99.90
42141;DHT22;27809;51.864;5.646;2022-10-20T00:26:39;8.80;99.90
42141;DHT22;27809;51.864;5.646;2022-10-20T00:29:04;8.80;99.90
42141;DHT22;27809;51.864;5.646;2022-10-20T00:31:30;8.90;99.90
42141;DHT22;27809;51.864;5.646;2022-10-20T00:33:56;8.80;99.90
42141;DHT22;27809;51.864;5.646;2022-10-20T00:36:22;8.80;99.90
42141;DHT22;27809;51.864;5.646;2022-10-20T00:38:48;8.80;99.90
42141;DHT22;27809;51.864;5.646;2022-10-20T00:41:16;8.80;99.90
42141;DHT22;27809;51.864;5.646;2022-10-20T00:46:15;8.70;99.90
42141;DHT22;27809;51.864;5.646;2022-10-20T00:48:44;8.70;99.90
42141;DHT22;27809;51.864;5.646;2022-10-20T00:51:12;8.60;99.90
42141;DHT22;27809;51.864;5.646;2022-10-20T00:53:39;8.70;99.90
42141;DHT22;27809;51.864;5.646;2022-10-20T00:56:04;8.70;99.90
42141;DHT22;27809;51.864;5.646;2022-10-20T00:58:30;8.70;99.90
42141;DHT22;27809;51.864;5.646;2022-10-20T01:00:58;8.70;99.90
42141;DHT22;27809;51.864;5.646;2022-10-20T01:03:33;8.70;99.90
42141;DHT22;27809;51.864;5.646;2022-10-20T01:06:00;8.70;99.90
42141;DHT22;27809;51.864;5.646;2022-10-20T01:08:26;8.60;99.90
42141;DHT22;27809;51.864;5.646;2022-10-20T01:11:09;8.60;99.90
42141;DHT22;27809;51.864;5.646;2022-10-20T01:13:52;8.60;99.90
42141;DHT22;27809;51.864;5.646;2022-10-20T01:16:37;8.50;99.90
42141;DHT22;27809;51.864;5.646;2022-10-20T01:21:56;8.50;99.90
42141;DHT22;27809;51.864;5.646;2022-10-20T01:27:38;8.60;99.90
42141;DHT22;27809;51.864;5.646;2022-10-20T01:30:11;8.60;99.90
42141;DHT22;27809;51.864;5.646;2022-10-20T01:32:57;8.50;99.90
42141;DHT22;27809;51.864;5.646;2022-10-20T01:35:40;8.50;99.90
42141;DHT22;27809;51.864;5.646;2022-10-20T01:38:13;8.60;99.90
42141;DHT22;27809;51.864;5.646;2022-10-20T01:40:44;8.50;99.90
42141;DHT22;27809;51.864;5.646;2022-10-20T01:43:14;8.40;99.90
42141;DHT22;27809;51.864;5.646;2022-10-20T01:45:45;8.50;99.90
42141;DHT22;27809;51.864;5.646;2022-10-20T01:48:13;8.50;99.90
42141;DHT22;27809;51.864;5.646;2022-10-20T01:50:41;8.50;99.90
42141;DHT22;27809;51.864;5.646;2022-10-20T01:53:07;8.40;99.90
42141;DHT22;27809;51.864;5.646;2022-10-20T01:55:33;8.50;99.90
42141;DHT22;27809;51.864;5.646;2022-10-20T02:00:25;8.50;99.90
42141;DHT22;27809;51.864;5.646;2022-10-20T02:03:08;8.50;99.90
42141;DHT22;27809;51.864;5.646;2022-10-20T02:08:39;8.60;99.90
42141;DHT22;27809;51.864;5.646;2022-10-20T02:11:07;8.60;99.90
42141;DHT22;27809;51.864;5.646;2022-10-20T02:13:36;8.60;99.90
42141;DHT22;27809;51.864;5.646;2022-10-20T02:16:08;8.60;99.90
42141;DHT22;27809;51.864;5.646;2022-10-20T02:18:41;8.60;99.90
42141;DHT22;27809;51.864;5.646;2022-10-20T02:21:07;8.60;99.90
42141;DHT22;27809;51.864;5.646;2022-10-20T02:23:36;8.60;99.90
42141;DHT22;27809;51.864;5.646;2022-10-20T02:26:07;8.60;99.90
42141;DHT22;27809;51.864;5.646;2022-10-20T02:28:34;8.60;99.90
42141;DHT22;27809;51.864;5.646;2022-10-20T02:31:02;8.70;99.90
42141;DHT22;27809;51.864;5.646;2022-10-20T02:33:29;8.60;99.90
42141;DHT22;27809;51.864;5.646;2022-10-20T02:35:57;8.60;99.90
42141;DHT22;27809;51.864;5.646;2022-10-20T02:38:23;8.60;99.90
42141;DHT22;27809;51.864;5.646;2022-10-20T02:40:49;8.60;99.90
42141;DHT22;27809;51.864;5.646;2022-10-20T02:43:14;8.50;99.90
42141;DHT22;27809;51.864;5.646;2022-10-20T02:45:40;8.50;99.90
42141;DHT22;27809;51.864;5.646;2022-10-20T02:48:05;8.50;99.90
42141;DHT22;27809;51.864;5.646;2022-10-20T02:50:33;8.50;99.90
42141;DHT22;27809;51.864;5.646;2022-10-20T02:52:59;8.50;99.90
42141;DHT22;27809;51.864;5.646;2022-10-20T02:55:24;8.50;99.90
42141;DHT22;27809;51.864;5.646;2022-10-20T02:57:50;8.50;99.90
42141;DHT22;27809;51.864;5.646;2022-10-20T03:00:18;8.50;99.90
42141;DHT22;27809;51.864;5.646;2022-10-20T03:02:44;8.50;99.90
42141;DHT22;27809;51.864;5.646;2022-10-20T03:05:10;8.50;99.90
42141;DHT22;27809;51.864;5.646;2022-10-20T03:07:35;8.40;99.90
42141;DHT22;27809;51.864;5.646;2022-10-20T03:10:01;8.50;99.90
42141;DHT22;27809;51.864;5.646;2022-10-20T03:12:27;8.40;99.90
42141;DHT22;27809;51.864;5.646;2022-10-20T03:14:52;8.50;99.90
42141;DHT22;27809;51.864;5.646;2022-10-20T03:17:18;8.50;99.90
42141;DHT22;27809;51.864;5.646;2022-10-20T03:19:44;8.50;99.90
42141;DHT22;27809;51.864;5.646;2022-10-20T03:22:09;8.60;99.90
42141;DHT22;27809;51.864;5.646;2022-10-20T03:24:35;8.50;99.90
42141;DHT22;27809;51.864;5.646;2022-10-20T03:27:00;8.60;99.90
42141;DHT22;27809;51.864;5.646;2022-10-20T03:29:26;8.60;99.90
42141;DHT22;27809;51.864;5.646;2022-10-20T03:31:51;8.60;99.90
42141;DHT22;27809;51.864;5.646;2022-10-20T03:34:17;8.50;99.90
42141;DHT22;27809;51.864;5.646;2022-10-20T03:36:42;8.60;99.90
42141;DHT22;27809;51.864;5.646;2022-10-20T03:39:08;8.60;99.90
42141;DHT22;27809;51.864;5.646;2022-10-20T03:41:33;8.60;99.90
42141;DHT22;27809;51.864;5.646;2022-10-20T03:43:59;8.60;99.90
42141;DHT22;27809;51.864;5.646;2022-10-20T03:46:24;8.70;99.90
42141;DHT22;27809;51.864;5.646;2022-10-20T03:48:50;8.70;99.90
42141;DHT22;27809;51.864;5.646;2022-10-20T03:51:15;8.70;99.90
42141;DHT22;27809;51.864;5.646;2022-10-20T03:53:41;8.70;99.90
42141;DHT22;27809;51.864;5.646;2022-10-20T03:56:08;8.70;99.90
42141;DHT22;27809;51.864;5.646;2022-10-20T03:58:34;8.70;99.90
42141;DHT22;27809;51.864;5.646;2022-10-20T04:01:00;8.70;99.90
42141;DHT22;27809;51.864;5.646;2022-10-20T04:03:25;8.60;99.90
42141;DHT22;27809;51.864;5.646;2022-10-20T04:05:51;8.70;99.90
42141;DHT22;27809;51.864;5.646;2022-10-20T04:08:16;8.70;99.90
42141;DHT22;27809;51.864;5.646;2022-10-20T04:10:42;8.80;99.90
42141;DHT22;27809;51.864;5.646;2022-10-20T04:13:08;8.80;99.90
42141;DHT22;27809;51.864;5.646;2022-10-20T04:15:33;8.70;99.90
42141;DHT22;27809;51.864;5.646;2022-10-20T04:17:59;8.80;99.90
42141;DHT22;27809;51.864;5.646;2022-10-20T04:20:25;8.80;99.90
42141;DHT22;27809;51.864;5.646;2022-10-20T04:22:50;8.80;99.90
42141;DHT22;27809;51.864;5.646;2022-10-20T04:25:16;8.80;99.90
42141;DHT22;27809;51.864;5.646;2022-10-20T04:27:41;8.80;99.90
42141;DHT22;27809;51.864;5.646;2022-10-20T04:30:07;8.70;99.90
42141;DHT22;27809;51.864;5.646;2022-10-20T04:32:33;8.70;99.90
42141;DHT22;27809;51.864;5.646;2022-10-20T04:34:59;8.70;99.90
42141;DHT22;27809;51.864;5.646;2022-10-20T04:37:24;8.80;99.90
42141;DHT22;27809;51.864;5.646;2022-10-20T04:39:50;8.80;99.90
42141;DHT22;27809;51.864;5.646;2022-10-20T04:42:19;8.70;99.90
42141;DHT22;27809;51.864;5.646;2022-10-20T04:44:45;8.80;99.90
42141;DHT22;27809;51.864;5.646;2022-10-20T04:47:11;8.70;99.90
42141;DHT22;27809;51.864;5.646;2022-10-20T04:49:36;8.80;99.90
42141;DHT22;27809;51.864;5.646;2022-10-20T04:52:02;8.70;99.90
42141;DHT22;27809;51.864;5.646;2022-10-20T04:54:28;8.80;99.90
42141;DHT22;27809;51.864;5.646;2022-10-20T04:56:54;8.70;99.90
42141;DHT22;27809;51.864;5.646;2022-10-20T04:59:19;8.80;99.90
42141;DHT22;27809;51.864;5.646;2022-10-20T05:01:45;8.80;99.90
42141;DHT22;27809;51.864;5.646;2022-10-20T05:04:11;8.90;99.90
42141;DHT22;27809;51.864;5.646;2022-10-20T05:06:36;8.90;99.90
42141;DHT22;27809;51.864;5.646;2022-10-20T05:09:04;8.90;99.90
42141;DHT22;27809;51.864;5.646;2022-10-20T05:11:32;8.90;99.90
42141;DHT22;27809;51.864;5.646;2022-10-20T05:13:58;8.90;99.90
42141;DHT22;27809;51.864;5.646;2022-10-20T05:16:24;9.00;99.90
42141;DHT22;27809;51.864;5.646;2022-10-20T05:18:49;9.00;99.90
42141;DHT22;27809;51.864;5.646;2022-10-20T05:21:20;9.00;99.90
42141;DHT22;27809;51.864;5.646;2022-10-20T05:23:47;9.00;99.90
42141;DHT22;27809;51.864;5.646;2022-10-20T05:26:15;9.00;99.90
42141;DHT22;27809;51.864;5.646;2022-10-20T05:28:43;9.00;99.90
42141;DHT22;27809;51.864;5.646;2022-10-20T05:31:09;9.00;99.90
42141;DHT22;27809;51.864;5.646;2022-10-20T05:33:35;9.00;99.90
42141;DHT22;27809;51.864;5.646;2022-10-20T05:36:07;9.00;99.90
42141;DHT22;27809;51.864;5.646;2022-10-20T05:38:33;9.00;99.90
42141;DHT22;27809;51.864;5.646;2022-10-20T05:41:12;9.00;99.90
42141;DHT22;27809;51.864;5.646;2022-10-20T05:43:38;9.10;99.90
42141;DHT22;27809;51.864;5.646;2022-10-20T05:46:04;9.10;99.90
42141;DHT22;27809;51.864;5.646;2022-10-20T05:48:30;9.10;99.90
42141;DHT22;27809;51.864;5.646;2022-10-20T05:51:06;9.10;99.90
42141;DHT22;27809;51.864;5.646;2022-10-20T05:53:31;9.20;99.90
42141;DHT22;27809;51.864;5.646;2022-10-20T05:56:05;9.20;99.90
42141;DHT22;27809;51.864;5.646;2022-10-20T05:58:31;9.10;99.90
42141;DHT22;27809;51.864;5.646;2022-10-20T06:01:08;9.10;99.90
42141;DHT22;27809;51.864;5.646;2022-10-20T06:03:34;9.10;99.90
42141;DHT22;27809;51.864;5.646;2022-10-20T06:06:00;9.10;99.90
42141;DHT22;27809;51.864;5.646;2022-10-20T06:08:29;9.10;99.90
42141;DHT22;27809;51.864;5.646;2022-10-20T06:10:55;9.10;99.90
42141;DHT22;27809;51.864;5.646;2022-10-20T06:13:21;9.10;99.90
42141;DHT22;27809;51.864;5.646;2022-10-20T06:15:46;9.10;99.90
42141;DHT22;27809;51.864;5.646;2022-10-20T06:18:13;9.20;99.90
42141;DHT22;27809;51.864;5.646;2022-10-20T06:20:39;9.10;99.90
42141;DHT22;27809;51.864;5.646;2022-10-20T06:23:04;9.10;99.90
42141;DHT22;27809;51.864;5.646;2022-10-20T06:25:30;9.10;99.90
42141;DHT22;27809;51.864;5.646;2022-10-20T06:27:55;9.20;99.90
42141;DHT22;27809;51.864;5.646;2022-10-20T06:30:21;9.30;99.90
42141;DHT22;27809;51.864;5.646;2022-10-20T06:32:46;9.10;99.90
42141;DHT22;27809;51.864;5.646;2022-10-20T06:35:12;9.20;99.90
42141;DHT22;27809;51.864;5.646;2022-10-20T06:37:37;9.30;99.90
42141;DHT22;27809;51.864;5.646;2022-10-20T06:40:03;9.30;99.90
42141;DHT22;27809;51.864;5.646;2022-10-20T06:42:29;9.30;99.90
42141;DHT22;27809;51.864;5.646;2022-10-20T06:44:54;9.40;99.90
42141;DHT22;27809;51.864;5.646;2022-10-20T06:47:20;9.50;99.90
42141;DHT22;27809;51.864;5.646;2022-10-20T06:49:47;9.50;99.90
42141;DHT22;27809;51.864;5.646;2022-10-20T06:52:13;9.60;99.90
42141;DHT22;27809;51.864;5.646;2022-10-20T06:54:38;9.70;99.90
42141;DHT22;27809;51.864;5.646;2022-10-20T06:57:04;9.80;99.90
42141;DHT22;27809;51.864;5.646;2022-10-20T06:59:29;10.80;99.90
42141;DHT22;27809;51.864;5.646;2022-10-20T07:01:55;10.30;99.90
42141;DHT22;27809;51.864;5.646;2022-10-20T07:04:20;10.20;99.90
42141;DHT22;27809;51.864;5.646;2022-10-20T07:06:46;10.20;99.90
42141;DHT22;27809;51.864;5.646;2022-10-20T07:09:15;10.20;99.90
42141;DHT22;27809;51.864;5.646;2022-10-20T07:11:41;10.20;99.90
42141;DHT22;27809;51.864;5.646;2022-10-20T07:14:09;10.20;99.90
42141;DHT22;27809;51.864;5.646;2022-10-20T07:16:35;10.10;99.90
42141;DHT22;27809;51.864;5.646;2022-10-20T07:19:02;10.20;99.90
42141;DHT22;27809;51.864;5.646;2022-10-20T07:21:29;10.40;99.90
42141;DHT22;27809;51.864;5.646;2022-10-20T07:23:56;10.40;99.90
42141;DHT22;27809;51.864;5.646;2022-10-20T07:26:26;10.50;99.90
42141;DHT22;27809;51.864;5.646;2022-10-20T07:28:54;10.60;99.90
42141;DHT22;27809;51.864;5.646;2022-10-20T07:31:25;10.80;99.90
42141;DHT22;27809;51.864;5.646;2022-10-20T07:33:51;10.80;99.90
42141;DHT22;27809;51.864;5.646;2022-10-20T07:36:22;10.80;99.90
42141;DHT22;27809;51.864;5.646;2022-10-20T07:38:50;10.80;99.90
42141;DHT22;27809;51.864;5.646;2022-10-20T07:41:16;10.90;99.90
42141;DHT22;27809;51.864;5.646;2022-10-20T07:43:42;10.90;99.90
42141;DHT22;27809;51.864;5.646;2022-10-20T07:46:09;10.90;99.90
42141;DHT22;27809;51.864;5.646;2022-10-20T07:48:35;10.90;99.90
42141;DHT22;27809;51.864;5.646;2022-10-20T07:53:54;11.00;99.90
42141;DHT22;27809;51.864;5.646;2022-10-20T07:56:21;11.00;99.90
42141;DHT22;27809;51.864;5.646;2022-10-20T07:58:47;11.10;99.90
42141;DHT22;27809;51.864;5.646;2022-10-20T08:01:12;11.10;99.90
42141;DHT22;27809;51.864;5.646;2022-10-20T08:03:38;11.20;99.90
42141;DHT22;27809;51.864;5.646;2022-10-20T08:06:04;11.20;99.90
42141;DHT22;27809;51.864;5.646;2022-10-20T08:08:30;11.40;99.90
42141;DHT22;27809;51.864;5.646;2022-10-20T08:10:55;11.50;99.90
42141;DHT22;27809;51.864;5.646;2022-10-20T08:13:26;11.60;99.90
42141;DHT22;27809;51.864;5.646;2022-10-20T08:15:52;11.70;99.90
42141;DHT22;27809;51.864;5.646;2022-10-20T08:18:18;11.80;99.90
42141;DHT22;27809;51.864;5.646;2022-10-20T08:20:43;11.90;99.90
42141;DHT22;27809;51.864;5.646;2022-10-20T08:23:10;12.00;99.90
42141;DHT22;27809;51.864;5.646;2022-10-20T08:25:36;12.00;99.90
42141;DHT22;27809;51.864;5.646;2022-10-20T08:28:02;12.00;99.90
42141;DHT22;27809;51.864;5.646;2022-10-20T08:30:27;12.00;99.90
42141;DHT22;27809;51.864;5.646;2022-10-20T08:32:53;12.50;99.90
42141;DHT22;27809;51.864;5.646;2022-10-20T08:35:20;12.40;99.90
42141;DHT22;27809;51.864;5.646;2022-10-20T08:37:46;12.60;99.90
42141;DHT22;27809;51.864;5.646;2022-10-20T08:40:32;12.60;99.90
42141;DHT22;27809;51.864;5.646;2022-10-20T08:42:59;12.40;99.90
42141;DHT22;27809;51.864;5.646;2022-10-20T08:45:25;12.50;99.90
42141;DHT22;27809;51.864;5.646;2022-10-20T08:47:53;12.50;99.90
42141;DHT22;27809;51.864;5.646;2022-10-20T08:50:20;12.40;99.90
42141;DHT22;27809;51.864;5.646;2022-10-20T08:52:50;12.40;99.90
42141;DHT22;27809;51.864;5.646;2022-10-20T08:55:31;12.40;99.90
42141;DHT22;27809;51.864;5.646;2022-10-20T08:58:06;13.50;99.90
42141;DHT22;27809;51.864;5.646;2022-10-20T09:00:35;13.00;99.90
42141;DHT22;27809;51.864;5.646;2022-10-20T09:03:13;12.90;99.90
42141;DHT22;27809;51.864;5.646;2022-10-20T09:05:42;12.80;99.90
42141;DHT22;27809;51.864;5.646;2022-10-20T09:08:09;12.80;99.90
42141;DHT22;27809;51.864;5.646;2022-10-20T09:10:36;12.90;99.90
42141;DHT22;27809;51.864;5.646;2022-10-20T09:13:10;12.80;99.90
42141;DHT22;27809;51.864;5.646;2022-10-20T09:15:40;12.90;99.90
42141;DHT22;27809;51.864;5.646;2022-10-20T09:18:09;12.90;99.90
42141;DHT22;27809;51.864;5.646;2022-10-20T09:21:04;13.00;99.90
42141;DHT22;27809;51.864;5.646;2022-10-20T09:23:42;13.00;99.90
42141;DHT22;27809;51.864;5.646;2022-10-20T09:26:20;13.00;99.90
42141;DHT22;27809;51.864;5.646;2022-10-20T09:28:48;13.00;99.90
42141;DHT22;27809;51.864;5.646;2022-10-20T09:31:32;13.10;99.90
42141;DHT22;27809;51.864;5.646;2022-10-20T09:33:58;13.40;99.90
42141;DHT22;27809;51.864;5.646;2022-10-20T09:36:28;13.40;99.90
42141;DHT22;27809;51.864;5.646;2022-10-20T09:38:54;13.40;99.90
42141;DHT22;27809;51.864;5.646;2022-10-20T09:41:22;13.40;99.90
42141;DHT22;27809;51.864;5.646;2022-10-20T09:46:22;13.40;99.90
42141;DHT22;27809;51.864;5.646;2022-10-20T09:48:49;13.40;99.90
42141;DHT22;27809;51.864;5.646;2022-10-20T09:51:25;13.50;99.90
42141;DHT22;27809;51.864;5.646;2022-10-20T09:53:58;13.40;99.90
42141;DHT22;27809;51.864;5.646;2022-10-20T09:56:28;14.70;99.90
42141;DHT22;27809;51.864;5.646;2022-10-20T09:58:55;13.90;99.90
42141;DHT22;27809;51.864;5.646;2022-10-20T10:01:22;13.50;99.90
42141;DHT22;27809;51.864;5.646;2022-10-20T10:03:49;13.50;99.90
42141;DHT22;27809;51.864;5.646;2022-10-20T10:09:28;13.40;99.90
42141;DHT22;27809;51.864;5.646;2022-10-20T10:12:01;13.40;99.90
42141;DHT22;27809;51.864;5.646;2022-10-20T10:14:29;13.40;99.90
42141;DHT22;27809;51.864;5.646;2022-10-20T10:16:54;13.40;99.90
42141;DHT22;27809;51.864;5.646;2022-10-20T10:19:25;13.40;99.90
42141;DHT22;27809;51.864;5.646;2022-10-20T10:21:54;13.40;99.90
42141;DHT22;27809;51.864;5.646;2022-10-20T10:24:37;13.50;99.90
42141;DHT22;27809;51.864;5.646;2022-10-20T10:27:04;15.50;99.90
42141;DHT22;27809;51.864;5.646;2022-10-20T10:29:33;14.20;99.90
42141;DHT22;27809;51.864;5.646;2022-10-20T10:37:28;13.50;99.90
42141;DHT22;27809;51.864;5.646;2022-10-20T10:39:54;13.50;99.90
42141;DHT22;27809;51.864;5.646;2022-10-20T10:45:16;13.50;99.90
42141;DHT22;27809;51.864;5.646;2022-10-20T10:50:53;13.50;99.90
42141;DHT22;27809;51.864;5.646;2022-10-20T10:56:39;19.70;86.00
42141;DHT22;27809;51.864;5.646;2022-10-20T10:59:10;17.50;89.40
42141;DHT22;27809;51.864;5.646;2022-10-20T11:02:21;15.30;99.90
42141;DHT22;27809;51.864;5.646;2022-10-20T11:11:00;14.70;99.90
42141;DHT22;27809;51.864;5.646;2022-10-20T11:16:12;14.40;99.90
42141;DHT22;27809;51.864;5.646;2022-10-20T11:18:57;13.90;99.90
42141;DHT22;27809;51.864;5.646;2022-10-20T11:21:58;13.50;99.90
42141;DHT22;27809;51.864;5.646;2022-10-20T11:27:23;13.40;99.90
42141;DHT22;27809;51.864;5.646;2022-10-20T11:29:53;13.30;99.90
42141;DHT22;27809;51.864;5.646;2022-10-20T11:32:39;13.20;99.90
42141;DHT22;27809;51.864;5.646;2022-10-20T11:35:33;13.20;99.90
42141;DHT22;27809;51.864;5.646;2022-10-20T11:41:02;13.20;99.90
42141;DHT22;27809;51.864;5.646;2022-10-20T11:43:38;13.10;99.90
42141;DHT22;27809;51.864;5.646;2022-10-20T11:46:17;13.10;99.90
42141;DHT22;27809;51.864;5.646;2022-10-20T11:48:49;13.10;99.90
42141;DHT22;27809;51.864;5.646;2022-10-20T11:54:20;13.10;99.90
42141;DHT22;27809;51.864;5.646;2022-10-20T11:56:57;13.10;99.90
42141;DHT22;27809;51.864;5.646;2022-10-20T12:05:29;13.10;99.90
42141;DHT22;27809;51.864;5.646;2022-10-20T12:08:18;13.10;99.90
42141;DHT22;27809;51.864;5.646;2022-10-20T12:11:02;13.00;99.90
42141;DHT22;27809;51.864;5.646;2022-10-20T12:19:25;13.00;99.90
42141;DHT22;27809;51.864;5.646;2022-10-20T12:22:00;13.10;99.90
42141;DHT22;27809;51.864;5.646;2022-10-20T12:24:36;13.00;99.90
42141;DHT22;27809;51.864;5.646;2022-10-20T12:35:57;13.30;99.90
42141;DHT22;27809;51.864;5.646;2022-10-20T12:38:00;13.40;99.90
42141;DHT22;27809;51.864;5.646;2022-10-20T12:40:33;13.60;99.90
42141;DHT22;27809;51.864;5.646;2022-10-20T12:43:10;13.70;99.90
42141;DHT22;27809;51.864;5.646;2022-10-20T12:45:47;13.70;99.90
42141;DHT22;27809;51.864;5.646;2022-10-20T12:48:19;13.70;99.90
42141;DHT22;27809;51.864;5.646;2022-10-20T12:50:47;13.70;99.90
42141;DHT22;27809;51.864;5.646;2022-10-20T12:53:24;13.70;99.90
42141;DHT22;27809;51.864;5.646;2022-10-20T12:55:59;13.60;99.90
42141;DHT22;27809;51.864;5.646;2022-10-20T12:58:38;13.50;99.90
42141;DHT22;27809;51.864;5.646;2022-10-20T13:01:23;13.60;99.90
42141;DHT22;27809;51.864;5.646;2022-10-20T13:03:50;13.60;99.90
42141;DHT22;27809;51.864;5.646;2022-10-20T13:16:47;13.80;99.90
42141;DHT22;27809;51.864;5.646;2022-10-20T13:19:29;13.90;99.90
42141;DHT22;27809;51.864;5.646;2022-10-20T13:21:56;13.90;99.90
42141;DHT22;27809;51.864;5.646;2022-10-20T13:24:29;14.00;99.90
42141;DHT22;27809;51.864;5.646;2022-10-20T13:27:00;14.10;99.90
42141;DHT22;27809;51.864;5.646;2022-10-20T13:32:01;14.20;99.90
42141;DHT22;27809;51.864;5.646;2022-10-20T13:34:51;14.30;99.90
42141;DHT22;27809;51.864;5.646;2022-10-20T13:40:27;14.40;99.90
42141;DHT22;27809;51.864;5.646;2022-10-20T13:51:17;14.80;99.90
42141;DHT22;27809;51.864;5.646;2022-10-20T13:53:46;15.80;99.90
42141;DHT22;27809;51.864;5.646;2022-10-20T13:58:41;19.00;98.90
42141;DHT22;27809;51.864;5.646;2022-10-20T14:01:21;19.50;94.90
42141;DHT22;27809;51.864;5.646;2022-10-20T14:03:49;19.20;95.10
42141;DHT22;27809;51.864;5.646;2022-10-20T14:06:31;16.50;99.90
42141;DHT22;27809;51.864;5.646;2022-10-20T14:09:07;15.40;99.90
42141;DHT22;27809;51.864;5.646;2022-10-20T14:11:33;15.10;99.90
42141;DHT22;27809;51.864;5.646;2022-10-20T14:14:00;15.10;99.90
42141;DHT22;27809;51.864;5.646;2022-10-20T14:16:27;15.00;99.90
42141;DHT22;27809;51.864;5.646;2022-10-20T14:19:02;18.10;99.90
42141;DHT22;27809;51.864;5.646;2022-10-20T14:21:37;19.90;92.20
42141;DHT22;27809;51.864;5.646;2022-10-20T14:24:03;19.40;94.00
42141;DHT22;27809;51.864;5.646;2022-10-20T14:26:32;16.70;99.90
42141;DHT22;27809;51.864;5.646;2022-10-20T14:28:57;16.10;99.90
42141;DHT22;27809;51.864;5.646;2022-10-20T14:31:25;15.60;99.90
42141;DHT22;27809;51.864;5.646;2022-10-20T14:33:51;15.50;99.90
42141;DHT22;27809;51.864;5.646;2022-10-20T14:36:21;15.40;99.90
42141;DHT22;27809;51.864;5.646;2022-10-20T14:38:49;15.30;99.90
42141;DHT22;27809;51.864;5.646;2022-10-20T14:41:24;15.30;99.90
42141;DHT22;27809;51.864;5.646;2022-10-20T14:43:58;15.20;99.90
42141;DHT22;27809;51.864;5.646;2022-10-20T14:48:54;15.10;99.90
42141;DHT22;27809;51.864;5.646;2022-10-20T14:51:38;15.10;99.90
42141;DHT22;27809;51.864;5.646;2022-10-20T14:59:18;15.10;99.90
42141;DHT22;27809;51.864;5.646;2022-10-20T15:04:39;15.10;99.90
42141;DHT22;27809;51.864;5.646;2022-10-20T15:07:31;15.00;99.90
42141;DHT22;27809;51.864;5.646;2022-10-20T15:10:05;15.00;99.90
42141;DHT22;27809;51.864;5.646;2022-10-20T15:23:06;15.00;99.90
42141;DHT22;27809;51.864;5.646;2022-10-20T15:25:47;15.00;99.90
42141;DHT22;27809;51.864;5.646;2022-10-20T15:30:57;14.90;99.90
42141;DHT22;27809;51.864;5.646;2022-10-20T15:33:23;14.90;99.90
42141;DHT22;27809;51.864;5.646;2022-10-20T15:35:48;15.00;99.90
42141;DHT22;27809;51.864;5.646;2022-10-20T15:38:15;14.80;99.90
42141;DHT22;27809;51.864;5.646;2022-10-20T15:40:41;14.80;99.90
42141;DHT22;27809;51.864;5.646;2022-10-20T15:43:13;16.10;99.90
42141;DHT22;27809;51.864;5.646;2022-10-20T15:45:43;15.90;99.90
42141;DHT22;27809;51.864;5.646;2022-10-20T15:48:09;15.30;99.90
42141;DHT22;27809;51.864;5.646;2022-10-20T15:50:35;14.90;99.90
42141;DHT22;27809;51.864;5.646;2022-10-20T15:53:02;14.80;99.90
42141;DHT22;27809;51.864;5.646;2022-10-20T15:55:35;14.70;99.90
42141;DHT22;27809;51.864;5.646;2022-10-20T15:58:02;18.90;99.90
42141;DHT22;27809;51.864;5.646;2022-10-20T16:00:28;16.40;99.90
42141;DHT22;27809;51.864;5.646;2022-10-20T16:02:54;15.40;99.90
42141;DHT22;27809;51.864;5.646;2022-10-20T16:05:21;14.90;99.90
42141;DHT22;27809;51.864;5.646;2022-10-20T16:07:50;14.80;99.90
42141;DHT22;27809;51.864;5.646;2022-10-20T16:10:18;14.80;99.90
42141;DHT22;27809;51.864;5.646;2022-10-20T16:12:43;14.70;99.90
42141;DHT22;27809;51.864;5.646;2022-10-20T16:15:10;14.40;99.90
42141;DHT22;27809;51.864;5.646;2022-10-20T16:17:35;14.40;99.90
42141;DHT22;27809;51.864;5.646;2022-10-20T16:20:02;14.50;99.90
42141;DHT22;27809;51.864;5.646;2022-10-20T16:22:28;14.50;99.90
42141;DHT22;27809;51.864;5.646;2022-10-20T16:24:53;14.40;99.90
42141;DHT22;27809;51.864;5.646;2022-10-20T16:27:20;14.30;99.90
42141;DHT22;27809;51.864;5.646;2022-10-20T16:29:46;14.20;99.90
42141;DHT22;27809;51.864;5.646;2022-10-20T16:32:11;14.20;99.90
42141;DHT22;27809;51.864;5.646;2022-10-20T16:34:37;14.20;99.90
42141;DHT22;27809;51.864;5.646;2022-10-20T16:37:02;14.20;99.90
42141;DHT22;27809;51.864;5.646;2022-10-20T16:39:28;14.10;99.90
42141;DHT22;27809;51.864;5.646;2022-10-20T16:41:54;14.10;99.90
42141;DHT22;27809;51.864;5.646;2022-10-20T16:44:19;14.10;99.90
42141;DHT22;27809;51.864;5.646;2022-10-20T16:46:45;14.10;99.90
42141;DHT22;27809;51.864;5.646;2022-10-20T16:49:10;13.90;99.90
42141;DHT22;27809;51.864;5.646;2022-10-20T16:51:36;13.90;99.90
42141;DHT22;27809;51.864;5.646;2022-10-20T16:54:01;13.80;99.90
42141;DHT22;27809;51.864;5.646;2022-10-20T16:56:27;13.80;99.90
42141;DHT22;27809;51.864;5.646;2022-10-20T16:58:52;13.70;99.90
42141;DHT22;27809;51.864;5.646;2022-10-20T17:01:20;13.70;99.90
42141;DHT22;27809;51.864;5.646;2022-10-20T17:03:48;13.80;99.90
42141;DHT22;27809;51.864;5.646;2022-10-20T17:06:15;13.70;99.90
42141;DHT22;27809;51.864;5.646;2022-10-20T17:08:41;13.60;99.90
42141;DHT22;27809;51.864;5.646;2022-10-20T17:11:13;13.60;99.90
42141;DHT22;27809;51.864;5.646;2022-10-20T17:13:39;13.70;99.90
42141;DHT22;27809;51.864;5.646;2022-10-20T17:16:07;13.70;99.90
42141;DHT22;27809;51.864;5.646;2022-10-20T17:18:33;13.40;99.90
42141;DHT22;27809;51.864;5.646;2022-10-20T17:20:59;13.60;99.90
42141;DHT22;27809;51.864;5.646;2022-10-20T17:23:25;13.60;99.90
42141;DHT22;27809;51.864;5.646;2022-10-20T17:25:51;13.60;99.90
42141;DHT22;27809;51.864;5.646;2022-10-20T17:28:17;13.60;99.90
42141;DHT22;27809;51.864;5.646;2022-10-20T17:30:44;13.50;99.90
42141;DHT22;27809;51.864;5.646;2022-10-20T17:33:10;13.50;99.90
42141;DHT22;27809;51.864;5.646;2022-10-20T17:35:36;13.50;99.90
42141;DHT22;27809;51.864;5.646;2022-10-20T17:38:02;13.50;99.90
42141;DHT22;27809;51.864;5.646;2022-10-20T17:40:28;13.40;99.90
42141;DHT22;27809;51.864;5.646;2022-10-20T17:42:53;13.40;99.90
42141;DHT22;27809;51.864;5.646;2022-10-20T17:45:20;13.40;99.90
42141;DHT22;27809;51.864;5.646;2022-10-20T17:47:45;13.30;99.90
42141;DHT22;27809;51.864;5.646;2022-10-20T17:50:11;13.40;99.90
42141;DHT22;27809;51.864;5.646;2022-10-20T17:52:37;13.40;99.90
42141;DHT22;27809;51.864;5.646;2022-10-20T17:55:03;13.50;99.90